createdAt,value
2018-11-14T00:00:37.215Z,75.96
2018-11-14T00:03:10.891Z,76.54
2018-11-14T00:05:39.845Z,76.46
2018-11-14T00:08:10.851Z,77.66
2018-11-14T00:10:40.329Z,77.91
2018-11-14T00:13:12.916Z,79.07
2018-11-14T00:15:42.062Z,77.86
2018-11-14T00:18:11.032Z,78.49
2018-11-14T00:20:41.227Z,78.30
2018-11-14T00:23:11.416Z,77.73
2018-11-14T00:25:44.568Z,77.32
2018-11-14T00:28:17.876Z,76.71
2018-11-14T00:30:51.561Z,77.15
2018-11-14T00:33:20.573Z,76.59
2018-11-14T00:35:51.513Z,76.92
2018-11-14T00:38:20.491Z,76.64
2018-11-14T00:40:51.397Z,76.91
2018-11-14T00:43:20.304Z,76.82
2018-11-14T00:45:49.284Z,77.03
2018-11-14T00:48:20.236Z,77.00
2018-11-14T00:50:49.228Z,76.84
2018-11-14T00:53:18.253Z,76.77
2018-11-14T00:55:50.452Z,77.45
2018-11-14T00:58:19.342Z,76.25
2018-11-14T01:00:50.896Z,75.83
2018-11-14T01:03:20.278Z,76.11
2018-11-14T01:05:53.385Z,75.96
2018-11-14T01:08:22.536Z,76.06
2018-11-14T01:10:52.150Z,76.57
2018-11-14T01:13:23.596Z,76.13
2018-11-14T01:15:52.579Z,76.18
2018-11-14T01:18:26.707Z,75.94
2018-11-14T01:20:57.259Z,76.26
2018-11-14T01:23:30.322Z,75.67
2018-11-14T01:26:00.996Z,76.16
2018-11-14T01:28:32.766Z,75.89
2018-11-14T01:31:01.821Z,76.15
2018-11-14T01:33:33.583Z,76.05
2018-11-14T01:36:04.471Z,75.33
2018-11-14T01:38:36.914Z,75.70
2018-11-14T01:41:06.213Z,76.19
2018-11-14T01:43:35.117Z,76.72
2018-11-14T01:46:04.081Z,76.90
2018-11-14T01:48:36.374Z,77.07
2018-11-14T01:51:09.235Z,76.64
2018-11-14T01:53:38.138Z,78.08
2018-11-14T01:56:09.277Z,77.74
2018-11-14T01:58:40.480Z,77.73
2018-11-14T02:01:10.744Z,76.37
2018-11-14T02:03:39.849Z,76.79
2018-11-14T02:06:09.013Z,77.31
2018-11-14T02:08:38.134Z,77.65
2018-11-14T02:11:10.708Z,77.75
2018-11-14T02:13:41.649Z,77.09
2018-11-14T02:16:13.182Z,77.18
2018-11-14T02:18:42.118Z,76.35
2018-11-14T02:21:10.993Z,76.74
2018-11-14T02:23:43.198Z,76.25
2018-11-14T02:26:14.616Z,76.60
2018-11-14T02:28:43.577Z,75.75
2018-11-14T02:31:12.509Z,75.92
2018-11-14T02:33:41.408Z,76.18
2018-11-14T02:36:14.817Z,76.87
2018-11-14T02:38:46.370Z,76.09
2018-11-14T02:41:17.984Z,76.92
2018-11-14T02:43:50.364Z,76.37
2018-11-14T02:46:19.418Z,77.20
2018-11-14T02:48:53.608Z,76.91
2018-11-14T02:51:27.070Z,76.72
2018-11-14T02:53:55.989Z,76.58
2018-11-14T02:56:24.902Z,77.49
2018-11-14T02:58:53.803Z,77.51
2018-11-14T03:01:26.016Z,76.95
2018-11-14T03:04:00.102Z,77.21
2018-11-14T03:06:33.876Z,76.75
2018-11-14T03:09:05.078Z,77.25
2018-11-14T03:11:38.109Z,77.31
2018-11-14T03:14:09.053Z,77.11
2018-11-14T03:16:37.893Z,76.33
2018-11-14T03:19:10.060Z,76.40
2018-11-14T03:21:42.797Z,76.43
2018-11-14T03:24:11.928Z,76.03
2018-11-14T03:26:41.237Z,76.32
2018-11-14T03:29:13.188Z,76.36
2018-11-14T03:31:42.171Z,76.93
2018-11-14T03:34:15.081Z,77.75
2018-11-14T03:36:44.491Z,77.40
2018-11-14T03:39:18.502Z,77.27
2018-11-14T03:41:48.226Z,77.91
2018-11-14T03:44:17.474Z,77.85
2018-11-14T03:46:46.976Z,78.10
2018-11-14T03:49:17.060Z,78.47
2018-11-14T03:51:48.383Z,78.59
2018-11-14T03:54:17.660Z,78.60
2018-11-14T03:56:46.788Z,78.87
2018-11-14T03:59:15.989Z,78.50
2018-11-14T04:01:45.439Z,77.87
2018-11-14T04:04:20.630Z,79.01
2018-11-14T04:06:50.794Z,79.13
2018-11-14T04:09:20.008Z,80.20
2018-11-14T04:11:49.300Z,78.62
2018-11-14T04:14:18.497Z,78.63
2018-11-14T04:16:49.869Z,79.39
2018-11-14T04:19:21.333Z,78.83
2018-11-14T04:21:53.742Z,79.25
2018-11-14T04:24:27.010Z,77.79
2018-11-14T04:27:05.030Z,77.52
2018-11-14T04:29:37.641Z,77.08
2018-11-14T04:32:09.972Z,78.12
2018-11-14T04:34:41.757Z,78.13
2018-11-14T04:37:13.140Z,77.49
2018-11-14T04:39:43.410Z,77.54
2018-11-14T04:42:12.802Z,77.24
2018-11-14T04:44:45.425Z,77.60
2018-11-14T04:47:16.160Z,78.03
2018-11-14T04:49:45.075Z,76.97
2018-11-14T04:52:14.197Z,77.80
2018-11-14T04:54:44.864Z,78.81
2018-11-14T04:57:13.879Z,78.03
2018-11-14T04:59:42.811Z,78.55
2018-11-14T05:02:14.480Z,77.53
2018-11-14T05:04:48.403Z,76.72
2018-11-14T05:07:22.804Z,76.27
2018-11-14T05:09:51.735Z,76.54
2018-11-14T05:12:20.613Z,76.24
2018-11-14T05:14:51.821Z,75.91
2018-11-14T05:17:21.547Z,75.59
2018-11-14T05:19:55.976Z,75.38
2018-11-14T05:22:26.305Z,76.21
2018-11-14T05:24:57.266Z,76.61
2018-11-14T05:27:26.872Z,75.23
2018-11-14T05:29:59.614Z,75.20
2018-11-14T05:32:29.124Z,75.98
2018-11-14T05:34:58.085Z,77.32
2018-11-14T05:37:29.417Z,77.25
2018-11-14T05:39:59.015Z,77.85
2018-11-14T05:42:28.044Z,77.94
2018-11-14T05:44:58.391Z,77.50
2018-11-14T05:47:29.997Z,77.72
2018-11-14T05:50:02.203Z,78.83
2018-11-14T05:52:36.536Z,79.17
2018-11-14T05:55:06.353Z,78.15
2018-11-14T05:57:35.463Z,77.96
2018-11-14T06:00:07.953Z,78.55
2018-11-14T06:02:47.250Z,78.07
2018-11-14T06:05:18.100Z,77.38
2018-11-14T06:07:49.022Z,77.76
2018-11-14T06:10:23.025Z,78.07
2018-11-14T06:12:56.265Z,77.38
2018-11-14T06:15:28.694Z,77.93
2018-11-14T06:18:00.482Z,76.76
2018-11-14T06:20:29.973Z,77.12
2018-11-14T06:22:59.250Z,77.84
2018-11-14T06:25:34.664Z,77.33
2018-11-14T06:28:05.431Z,77.00
2018-11-14T06:30:36.146Z,76.74
2018-11-14T06:33:08.017Z,76.82
2018-11-14T06:35:37.495Z,76.87
2018-11-14T06:38:06.868Z,77.03
2018-11-14T06:40:36.319Z,77.14
2018-11-14T06:43:09.496Z,76.24
2018-11-14T06:45:41.324Z,76.59
2018-11-14T06:48:11.250Z,76.02
2018-11-14T06:50:40.937Z,76.19
2018-11-14T06:53:12.951Z,76.74
2018-11-14T06:55:42.131Z,76.86
2018-11-14T06:58:11.180Z,75.77
2018-11-14T07:00:40.286Z,76.58
2018-11-14T07:03:09.386Z,76.60
2018-11-14T07:05:38.782Z,77.93
2018-11-14T07:08:08.122Z,77.75
2018-11-14T07:10:37.692Z,76.92
2018-11-14T07:13:12.009Z,76.62
2018-11-14T07:15:41.522Z,77.33
2018-11-14T07:18:11.467Z,77.98
2018-11-14T07:20:42.945Z,78.40
2018-11-14T07:23:12.080Z,78.66
2018-11-14T07:25:41.376Z,78.62
2018-11-14T07:28:11.497Z,79.33
2018-11-14T07:30:40.879Z,79.08
2018-11-14T07:33:11.022Z,78.01
2018-11-14T07:35:40.339Z,78.27
2018-11-14T07:38:42.709Z,78.16
2018-11-14T07:41:13.219Z,77.80
2018-11-14T07:43:42.754Z,78.14
2018-11-14T07:46:12.233Z,78.02
2018-11-14T07:48:42.694Z,78.87
2018-11-14T07:51:12.025Z,78.02
2018-11-14T07:53:41.003Z,77.13
2018-11-14T07:56:10.098Z,78.21
2018-11-14T07:58:39.097Z,75.58
2018-11-14T08:01:08.526Z,76.51
2018-11-14T08:03:38.216Z,79.04
2018-11-14T08:06:07.395Z,78.16
2018-11-14T08:08:37.568Z,77.63
2018-11-14T08:11:07.450Z,78.36
2018-11-14T08:13:37.459Z,79.82
2018-11-14T08:16:07.479Z,77.27
2018-11-14T08:18:36.514Z,77.49
2018-11-14T08:21:05.989Z,77.02
2018-11-14T08:23:34.914Z,77.91
2018-11-14T08:26:03.980Z,77.87
2018-11-14T08:28:33.001Z,78.15
2018-11-14T08:31:02.067Z,78.71
2018-11-14T08:33:31.163Z,78.49
2018-11-14T08:36:00.334Z,79.33
2018-11-14T08:38:29.321Z,79.69
2018-11-14T08:40:58.457Z,78.29
2018-11-14T08:43:27.487Z,77.57
2018-11-14T08:45:56.536Z,79.14
2018-11-14T08:48:26.396Z,79.58
2018-11-14T08:50:55.964Z,78.07
2018-11-14T08:53:25.584Z,77.85
2018-11-14T08:55:55.364Z,78.29
2018-11-14T08:58:25.064Z,77.40
2018-11-14T09:00:55.322Z,77.50
2018-11-14T09:03:28.296Z,77.14
2018-11-14T09:05:58.495Z,77.23
2018-11-14T09:08:28.425Z,76.53
2018-11-14T09:10:57.992Z,76.20
2018-11-14T09:13:27.673Z,75.55
2018-11-14T09:15:57.231Z,75.17
2018-11-14T09:18:27.794Z,76.03
2018-11-14T09:20:57.348Z,77.03
2018-11-14T09:23:26.758Z,77.00
2018-11-14T09:25:56.397Z,77.47
2018-11-14T09:28:26.044Z,77.38
2018-11-14T09:30:55.550Z,78.81
2018-11-14T09:33:24.583Z,79.54
2018-11-14T09:35:54.256Z,78.68
2018-11-14T09:38:23.361Z,79.71
2018-11-14T09:40:52.381Z,79.52
2018-11-14T09:43:21.335Z,81.28
2018-11-14T09:45:50.496Z,80.40
2018-11-14T09:48:19.529Z,80.02
2018-11-14T09:50:48.734Z,80.59
2018-11-14T09:53:20.803Z,80.17
2018-11-14T09:55:50.148Z,79.50
2018-11-14T09:58:19.269Z,79.66
2018-11-14T10:00:48.470Z,79.56
2018-11-14T10:03:18.283Z,79.12
2018-11-14T10:05:47.305Z,78.81
2018-11-14T10:08:16.783Z,79.18
2018-11-14T10:10:46.460Z,79.14
2018-11-14T10:13:15.990Z,79.28
2018-11-14T10:15:45.377Z,78.47
2018-11-14T10:18:14.390Z,79.16
2018-11-14T10:20:43.595Z,78.48
2018-11-14T10:23:13.086Z,78.08
2018-11-14T10:25:42.289Z,78.35
2018-11-14T10:28:11.252Z,79.03
2018-11-14T10:30:40.815Z,78.25
2018-11-14T10:33:14.701Z,77.33
2018-11-14T10:35:43.845Z,78.05
2018-11-14T10:38:13.100Z,78.51
2018-11-14T10:40:42.505Z,79.61
2018-11-14T10:43:11.683Z,78.28
2018-11-14T10:45:40.811Z,79.12
2018-11-14T10:48:12.546Z,78.96
2018-11-14T10:50:42.643Z,78.68
2018-11-14T10:53:12.162Z,78.76
2018-11-14T10:55:41.242Z,79.09
2018-11-14T10:58:10.519Z,79.18
2018-11-14T11:00:44.694Z,78.47
2018-11-14T11:05:25.749Z,79.12
2018-11-14T11:08:00.229Z,78.60
2018-11-14T11:10:34.297Z,77.86
2018-11-14T11:13:09.750Z,78.06
2018-11-14T11:15:43.564Z,79.25
2018-11-14T11:18:14.665Z,79.30
2018-11-14T11:20:43.313Z,78.42
2018-11-14T11:23:11.958Z,78.05
2018-11-14T11:25:40.875Z,78.84
2018-11-14T11:28:09.508Z,79.08
2018-11-14T11:30:38.493Z,79.16
2018-11-14T11:33:09.325Z,78.79
2018-11-14T11:35:37.961Z,79.92
2018-11-14T11:38:06.941Z,78.57
2018-11-14T11:40:35.780Z,78.27
2018-11-14T11:43:05.269Z,78.29
2018-11-14T11:45:34.572Z,78.14
2018-11-14T11:48:03.221Z,77.56
2018-11-14T11:50:31.881Z,78.11
2018-11-14T11:53:00.889Z,78.19
2018-11-14T11:55:29.576Z,77.53
2018-11-14T11:57:58.933Z,77.04
2018-11-14T12:00:27.766Z,76.90
2018-11-14T12:02:56.871Z,76.87
2018-11-14T12:05:26.051Z,76.79
2018-11-14T12:07:54.913Z,76.10
2018-11-14T12:10:23.550Z,77.91
2018-11-14T12:12:53.541Z,78.10
2018-11-14T12:15:24.195Z,78.30
2018-11-14T12:17:54.875Z,78.11
2018-11-14T12:20:26.159Z,79.32
2018-11-14T12:22:56.698Z,79.34
2018-11-14T12:25:29.025Z,78.97
2018-11-14T12:28:00.294Z,79.01
2018-11-14T12:30:30.942Z,79.14
2018-11-14T12:32:59.690Z,78.69
2018-11-14T12:35:28.305Z,77.85
2018-11-14T12:37:57.062Z,78.19
2018-11-14T12:40:25.667Z,77.55
2018-11-14T12:42:54.301Z,78.64
2018-11-14T12:45:22.939Z,78.77
2018-11-14T12:47:51.597Z,78.54
2018-11-14T12:50:20.197Z,78.62
2018-11-14T12:52:48.923Z,77.98
2018-11-14T12:55:19.728Z,77.67
2018-11-14T12:57:48.349Z,77.74
2018-11-14T13:00:18.440Z,78.26
2018-11-14T13:02:49.045Z,78.73
2018-11-14T13:05:17.764Z,77.06
2018-11-14T13:07:46.609Z,76.80
2018-11-14T13:10:16.323Z,76.76
2018-11-14T13:12:45.676Z,77.45
2018-11-14T13:15:15.302Z,77.23
2018-11-14T13:17:44.413Z,76.55
2018-11-14T13:20:15.941Z,76.62
2018-11-14T13:22:45.000Z,76.52
2018-11-14T13:25:14.297Z,76.09
2018-11-14T13:27:44.098Z,76.79
2018-11-14T13:30:14.849Z,76.37
2018-11-14T13:32:43.978Z,75.89
2018-11-14T13:35:14.028Z,76.10
2018-11-14T13:37:43.875Z,76.57
2018-11-14T13:40:13.077Z,76.96
2018-11-14T13:42:42.459Z,76.67
2018-11-14T13:45:13.205Z,76.55
2018-11-14T13:47:42.152Z,76.69
2018-11-14T13:50:12.765Z,76.00
2018-11-14T13:52:41.812Z,76.78
2018-11-14T13:55:12.138Z,76.22
2018-11-14T13:57:41.317Z,76.88
2018-11-14T14:00:11.441Z,77.22
2018-11-14T14:02:40.253Z,76.80
2018-11-14T14:05:11.098Z,76.52
2018-11-14T14:07:39.818Z,76.24
2018-11-14T14:10:09.904Z,76.67
2018-11-14T14:12:38.549Z,76.29
2018-11-14T14:15:09.554Z,76.06
2018-11-14T14:17:38.207Z,75.84
2018-11-14T14:20:07.922Z,75.67
2018-11-14T14:22:36.533Z,75.88
2018-11-14T14:25:06.453Z,76.08
2018-11-14T14:27:35.080Z,75.41
2018-11-14T14:30:03.827Z,75.85
2018-11-14T14:32:32.433Z,76.50
2018-11-14T14:35:01.065Z,76.84
2018-11-14T14:37:29.753Z,75.35
2018-11-14T14:39:58.325Z,75.75
2018-11-14T14:42:27.024Z,76.20
2018-11-14T14:44:55.830Z,76.23
2018-11-14T14:47:24.541Z,76.00
2018-11-14T14:49:53.137Z,76.54
2018-11-14T14:52:22.769Z,76.27
2018-11-14T14:54:51.381Z,76.39
2018-11-14T14:57:19.998Z,75.31
2018-11-14T14:59:48.596Z,75.35
2018-11-14T15:02:17.221Z,75.30
2018-11-14T15:04:46.144Z,74.99
2018-11-14T15:07:14.769Z,75.05
2018-11-14T15:09:43.474Z,75.15
2018-11-14T15:12:12.005Z,75.59
2018-11-14T15:14:40.628Z,75.70
2018-11-14T15:17:09.282Z,76.53
2018-11-14T15:19:37.878Z,76.86
2018-11-14T15:22:08.013Z,76.44
2018-11-14T15:24:36.633Z,76.73
2018-11-14T15:27:05.784Z,76.17
2018-11-14T15:29:34.429Z,76.17
2018-11-14T15:32:03.013Z,76.01
2018-11-14T15:34:32.052Z,76.12
2018-11-14T15:37:00.778Z,75.82
2018-11-14T15:39:31.391Z,75.99
2018-11-14T15:41:59.992Z,75.91
2018-11-14T15:44:30.312Z,75.96
2018-11-14T15:46:58.928Z,75.90
2018-11-14T15:49:27.542Z,76.33
2018-11-14T15:51:56.173Z,76.40
2018-11-14T15:54:24.806Z,75.54
2018-11-14T15:56:53.532Z,76.16
2018-11-14T15:59:22.342Z,75.80
2018-11-14T16:01:51.121Z,76.21
2018-11-14T16:04:19.754Z,76.28
2018-11-14T16:06:48.514Z,76.57
2018-11-14T16:09:17.146Z,75.75
2018-11-14T16:11:45.769Z,76.61
2018-11-14T16:14:14.385Z,76.13
2018-11-14T16:16:43.019Z,77.97
2018-11-14T16:19:11.629Z,77.09
2018-11-14T16:21:40.280Z,76.10
2018-11-14T16:24:08.891Z,76.89
2018-11-14T16:26:37.513Z,76.54
2018-11-14T16:29:06.264Z,76.89
2018-11-14T16:31:35.220Z,76.90
2018-11-14T16:34:03.849Z,77.74
2018-11-14T16:36:32.685Z,77.83
2018-11-14T16:39:01.592Z,77.89
2018-11-14T16:41:30.236Z,76.42
2018-11-14T16:43:58.869Z,76.26
2018-11-14T16:46:27.480Z,76.35
2018-11-14T16:48:56.078Z,76.58
2018-11-14T16:51:24.714Z,76.08
2018-11-14T16:53:53.434Z,76.04
2018-11-14T16:56:22.153Z,76.11
2018-11-14T16:58:50.772Z,76.09
2018-11-14T17:01:19.406Z,76.27
2018-11-14T17:03:48.073Z,76.88
2018-11-14T17:06:16.750Z,76.85
2018-11-14T17:08:45.393Z,76.63
2018-11-14T17:11:14.045Z,76.67
2018-11-14T17:13:42.657Z,76.67
2018-11-14T17:16:11.330Z,76.39
2018-11-14T17:18:39.948Z,76.74
2018-11-14T17:21:08.625Z,76.54
2018-11-14T17:23:37.258Z,76.70
2018-11-14T17:26:06.258Z,76.75
2018-11-14T17:28:34.881Z,76.97
2018-11-14T17:31:03.523Z,76.94
2018-11-14T17:33:32.129Z,77.11
2018-11-14T17:36:00.906Z,76.83
2018-11-14T17:38:29.429Z,77.35
2018-11-14T17:40:58.065Z,77.00
2018-11-14T17:43:26.667Z,76.96
2018-11-14T17:45:55.283Z,76.77
2018-11-14T17:48:23.896Z,76.31
2018-11-14T17:50:52.574Z,76.30
2018-11-14T17:53:21.164Z,76.57
2018-11-14T17:55:49.828Z,77.08
2018-11-14T17:58:18.420Z,77.55
2018-11-14T18:00:47.071Z,77.42
2018-11-14T18:03:15.689Z,77.49
2018-11-14T18:05:44.331Z,77.41
2018-11-14T18:08:12.953Z,76.66
2018-11-14T18:10:41.584Z,77.84
2018-11-14T18:13:10.186Z,77.83
2018-11-14T18:15:38.793Z,78.32
2018-11-14T18:18:07.409Z,77.75
2018-11-14T18:20:36.053Z,77.70
2018-11-14T18:23:04.684Z,77.29
2018-11-14T18:25:33.325Z,77.22
2018-11-14T18:28:01.942Z,77.17
2018-11-14T18:30:31.360Z,77.59
2018-11-14T18:33:01.220Z,77.23
2018-11-14T18:35:29.917Z,77.14
2018-11-14T18:37:59.260Z,77.05
2018-11-14T18:40:30.383Z,77.02
2018-11-14T18:42:59.004Z,77.92
2018-11-14T18:45:29.927Z,77.26
2018-11-14T18:47:59.439Z,77.45
2018-11-14T18:50:28.315Z,77.53
2018-11-14T18:52:56.922Z,78.42
2018-11-14T18:55:26.932Z,78.13
2018-11-14T18:57:55.733Z,77.34
2018-11-14T19:00:25.844Z,78.82
2018-11-14T19:02:54.486Z,78.05
2018-11-14T19:05:23.151Z,77.73
2018-11-14T19:07:51.796Z,78.43
2018-11-14T19:10:21.912Z,77.36
2018-11-14T19:12:51.193Z,78.49
2018-11-14T19:15:24.083Z,78.12
2018-11-14T19:17:52.728Z,77.97
2018-11-14T19:20:22.721Z,77.35
2018-11-14T19:22:51.786Z,77.73
2018-11-14T19:25:22.730Z,77.68
2018-11-14T19:27:51.585Z,77.05
2018-11-14T19:30:22.456Z,77.32
2018-11-14T19:32:51.933Z,78.10
2018-11-14T19:35:20.691Z,77.51
2018-11-14T19:37:50.423Z,77.42
2018-11-14T19:40:21.833Z,78.34
2018-11-14T19:42:51.733Z,77.68
2018-11-14T19:45:22.465Z,77.79
2018-11-14T19:47:51.128Z,77.25
2018-11-14T19:50:20.647Z,77.16
2018-11-14T19:52:49.669Z,78.76
2018-11-14T19:55:19.635Z,77.65
2018-11-14T19:57:49.205Z,77.35
2018-11-14T20:00:21.298Z,77.83
2018-11-14T20:02:49.912Z,77.79
2018-11-14T20:05:18.985Z,77.30
2018-11-14T20:07:47.698Z,76.42
2018-11-14T20:10:18.716Z,77.11
2018-11-14T20:12:47.885Z,76.18
2018-11-14T20:15:17.856Z,77.24
2018-11-14T20:17:47.208Z,77.24
2018-11-14T20:20:18.308Z,76.93
2018-11-14T20:22:47.068Z,77.65
2018-11-14T20:25:15.793Z,76.67
2018-11-14T20:27:44.782Z,75.74
2018-11-14T20:30:17.663Z,75.70
2018-11-14T20:32:46.320Z,76.26
2018-11-14T20:35:16.221Z,75.75
2018-11-14T20:37:44.833Z,75.53
2018-11-14T20:40:14.811Z,75.98
2018-11-14T20:42:43.804Z,75.49
2018-11-14T20:45:14.243Z,76.40
2018-11-14T20:47:42.929Z,75.79
2018-11-14T20:50:14.083Z,76.53
2018-11-14T20:52:43.113Z,76.68
2018-11-14T20:55:12.227Z,77.29
2018-11-14T20:57:41.491Z,76.93
2018-11-14T21:00:17.157Z,77.11
2018-11-14T21:02:45.766Z,76.91
2018-11-14T21:05:14.396Z,76.62
2018-11-14T21:07:43.616Z,77.32
2018-11-14T21:10:13.958Z,76.71
2018-11-14T21:12:42.931Z,76.94
2018-11-14T21:15:16.597Z,76.83
2018-11-14T21:17:45.324Z,77.17
2018-11-14T21:20:14.006Z,77.34
2018-11-14T21:22:42.722Z,76.52
2018-11-14T21:25:13.128Z,76.46
2018-11-14T21:27:42.808Z,76.26
2018-11-14T21:30:13.013Z,76.42
2018-11-14T21:32:42.089Z,76.75
2018-11-14T21:35:24.644Z,77.69
2018-11-14T21:37:55.413Z,77.06
2018-11-14T21:40:24.081Z,76.64
2018-11-14T21:42:52.700Z,76.23
2018-11-14T21:45:22.572Z,76.30
2018-11-14T21:47:56.296Z,76.71
2018-11-14T21:50:25.935Z,76.03
2018-11-14T21:52:54.597Z,76.73
2018-11-14T21:55:23.222Z,76.78
2018-11-14T21:57:51.828Z,76.08
2018-11-14T22:00:22.866Z,76.08
2018-11-14T22:02:52.852Z,76.45
2018-11-14T22:05:21.541Z,76.47
2018-11-14T22:07:50.158Z,77.62
2018-11-14T22:10:20.252Z,77.49
2018-11-14T22:12:49.200Z,76.97
2018-11-14T22:15:19.101Z,76.53
2018-11-14T22:17:47.777Z,76.48
2018-11-14T22:20:17.669Z,77.18
2018-11-14T22:22:46.782Z,75.65
2018-11-14T22:25:18.653Z,76.12
2018-11-14T22:27:47.410Z,77.54
2018-11-14T22:30:18.329Z,76.55
2018-11-14T22:32:46.985Z,77.66
2018-11-14T22:35:16.738Z,76.40
2018-11-14T22:37:45.345Z,76.87
2018-11-14T22:40:16.480Z,76.58
2018-11-14T22:42:45.353Z,76.56
2018-11-14T22:45:15.900Z,76.71
2018-11-14T22:47:44.826Z,76.92
2018-11-14T22:50:14.689Z,78.07
2018-11-14T22:52:43.941Z,77.30
2018-11-14T22:55:13.637Z,76.64
2018-11-14T22:57:42.888Z,76.82
2018-11-14T23:00:20.849Z,76.12
2018-11-14T23:02:51.166Z,76.16
2018-11-14T23:05:19.849Z,76.29
2018-11-14T23:07:49.708Z,75.43
2018-11-14T23:10:18.945Z,76.54
2018-11-14T23:12:47.960Z,76.22
2018-11-14T23:15:16.651Z,76.78
2018-11-14T23:17:45.286Z,75.41
2018-11-14T23:20:14.933Z,75.41
2018-11-14T23:22:44.220Z,76.05
2018-11-14T23:25:13.313Z,76.00
2018-11-14T23:27:43.317Z,76.50
2018-11-14T23:30:13.064Z,76.30
2018-11-14T23:32:42.802Z,76.61
2018-11-14T23:35:17.399Z,76.28
2018-11-14T23:37:48.028Z,76.50
2018-11-14T23:40:16.657Z,76.08
2018-11-14T23:42:45.260Z,77.39
2018-11-14T23:45:14.928Z,76.36
2018-11-14T23:47:44.314Z,77.30
2018-11-14T23:50:17.686Z,76.45
2018-11-14T23:52:47.252Z,76.38
2018-11-14T23:55:16.617Z,75.92
2018-11-14T23:57:45.336Z,76.41
